Time;durP1;ratioP1;P1;durP2;ratioP2;P2;SDS_P1;SDS_P2;PMS_P1;PMS_P2;Temp;Humidity;BMP_temperature;BMP_pressure;BME280_temperature;BME280_humidity;BME280_pressure;Samples;Min_cycle;Max_cycle;Signal;HPM_P1;HPM_P2
2023/11/27 00:01:08;;;;;;;0.50;0.50;;;;;;;-0.15;100.00;99918.59;5043138;28;20037;-75
2023/11/27 00:03:35;;;;;;;0.30;0.30;;;;;;;-0.54;100.00;99813.28;5041813;28;20064;-74
2023/11/27 00:06:00;;;;;;;0.40;0.40;;;;;;;-0.79;100.00;99802.13;5040897;28;20041;-76
2023/11/27 00:08:26;;;;;;;0.47;0.47;;;;;;;-0.34;100.00;99866.41;5037127;28;20044;-74
2023/11/27 00:10:51;;;;;;;4.65;4.45;;;;;;;-0.74;100.00;99785.13;5040134;28;20033;-75
2023/11/27 00:13:17;;;;;;;0.40;0.40;;;;;;;-1.27;100.00;99710.31;5065675;28;20045;-75
2023/11/27 00:15:42;;;;;;;0.40;0.40;;;;;;;-0.18;100.00;99903.03;5054532;28;20461;-74
2023/11/27 00:18:08;;;;;;;0.40;0.40;;;;;;;-0.71;100.00;99836.75;5045658;28;20041;-74
2023/11/27 00:20:34;;;;;;;0.70;0.70;;;;;;;-0.49;100.00;99847.84;5039336;28;20063;-76
2023/11/27 00:23:01;;;;;;;0.30;0.30;;;;;;;-0.17;100.00;99907.34;5038238;28;20033;-75
2023/11/27 00:25:28;;;;;;;0.35;0.35;;;;;;;-0.57;100.00;99834.66;5036603;28;20078;-77
2023/11/27 00:27:53;;;;;;;0.38;0.38;;;;;;;-0.40;100.00;99866.19;5046372;28;20426;-74
2023/11/27 00:30:19;;;;;;;0.70;0.70;;;;;;;-0.67;100.00;99820.59;5040861;28;20784;-75
2023/11/27 00:32:45;;;;;;;0.40;0.40;;;;;;;-0.34;100.00;99858.66;5039666;28;20061;-75
2023/11/27 00:35:10;;;;;;;0.30;0.30;;;;;;;0.00;100.00;99932.03;5037338;28;20584;-75
2023/11/27 00:37:36;;;;;;;0.50;0.50;;;;;;;-0.10;100.00;99912.78;5038203;28;20033;-77
2023/11/27 00:40:01;;;;;;;0.40;0.40;;;;;;;-0.56;100.00;99818.41;5039731;28;20052;-75
2023/11/27 00:42:27;;;;;;;0.40;0.40;;;;;;;-0.58;100.00;99832.94;5038594;28;20484;-75
2023/11/27 00:44:53;;;;;;;0.40;0.40;;;;;;;-0.20;100.00;99920.16;5042573;28;20114;-75
2023/11/27 00:47:20;;;;;;;0.35;0.35;;;;;;;-0.18;100.00;99910.78;5041083;28;20053;-74
2023/11/27 00:49:45;;;;;;;0.60;0.60;;;;;;;-0.75;100.00;99822.03;5038413;28;20029;-75
2023/11/27 00:52:11;;;;;;;0.50;0.50;;;;;;;-0.50;100.00;99871.84;5036948;28;20052;-76
2023/11/27 00:54:36;;;;;;;0.50;0.50;;;;;;;-0.61;100.00;99860.28;5040763;28;20116;-76
2023/11/27 00:57:02;;;;;;;0.50;0.50;;;;;;;-0.45;100.00;99921.84;5041589;28;20045;-78
2023/11/27 00:59:28;;;;;;;0.35;0.35;;;;;;;-0.73;100.00;99874.47;5044560;28;20059;-77
2023/11/27 01:01:53;;;;;;;0.30;0.30;;;;;;;-0.22;100.00;99945.88;5039791;28;20714;-76
2023/11/27 01:04:19;;;;;;;0.60;0.60;;;;;;;-0.58;100.00;99911.94;5041573;28;20033;-79
2023/11/27 01:06:44;;;;;;;1.25;1.25;;;;;;;-0.47;100.00;99939.84;5035863;28;20057;-76
2023/11/27 01:09:11;;;;;;;0.40;0.40;;;;;;;-0.22;100.00;99954.47;5044144;28;20044;-75
2023/11/27 01:11:38;;;;;;;0.40;0.40;;;;;;;-1.04;100.00;99820.09;5035215;28;20739;-76
2023/11/27 01:14:03;;;;;;;0.50;0.50;;;;;;;-1.02;100.00;99826.19;5041475;28;20029;-76
2023/11/27 01:16:29;;;;;;;0.57;0.50;;;;;;;-0.86;100.00;99836.22;5040795;28;20456;-75
2023/11/27 01:18:54;;;;;;;1.15;1.15;;;;;;;-0.41;100.00;99925.41;5041748;28;20049;-74
2023/11/27 01:21:20;;;;;;;0.30;0.30;;;;;;;-0.60;100.00;99900.69;5064078;28;20480;-76
2023/11/27 01:23:45;;;;;;;0.50;0.50;;;;;;;-0.91;100.00;99848.06;5042972;28;20083;-75
2023/11/27 01:26:12;;;;;;;0.50;0.50;;;;;;;-0.25;100.00;99963.81;5037380;28;20212;-74
2023/11/27 01:28:37;;;;;;;0.40;0.40;;;;;;;-0.96;100.00;99849.56;5040443;28;20049;-76
2023/11/27 01:31:05;;;;;;;0.45;0.45;;;;;;;-0.29;100.00;99975.69;5048840;28;20474;-77
2023/11/27 01:33:31;;;;;;;0.47;0.47;;;;;;;-0.88;100.00;99855.88;5040773;28;20040;-73
2023/11/27 01:35:56;;;;;;;0.30;0.30;;;;;;;-0.51;100.00;99948.28;5039479;28;20566;-75
2023/11/27 01:38:22;;;;;;;0.30;0.30;;;;;;;-0.30;100.00;99966.22;5043471;28;20045;-78
2023/11/27 01:40:48;;;;;;;0.52;0.52;;;;;;;-0.33;100.00;99983.25;5045251;28;20029;-74
2023/11/27 01:43:16;;;;;;;0.40;0.40;;;;;;;-0.33;100.00;99986.75;5041921;28;20124;-75
2023/11/27 01:45:42;;;;;;;0.70;0.70;;;;;;;-1.08;100.00;99860.28;5044614;28;20289;-76
2023/11/27 01:48:10;;;;;;;0.60;0.60;;;;;;;-0.68;100.00;99918.41;5048713;28;20091;-77
2023/11/27 01:50:36;;;;;;;0.40;0.40;;;;;;;-1.30;100.00;99813.16;5043564;28;20037;-76
2023/11/27 01:53:02;;;;;;;0.20;0.20;;;;;;;-1.22;100.00;99867.47;5043456;28;20082;-75
2023/11/27 01:55:28;;;;;;;0.40;0.40;;;;;;;-0.41;100.00;99984.69;5038966;28;20033;-75
2023/11/27 01:57:55;;;;;;;1.95;1.85;;;;;;;-0.54;100.00;99949.84;5047324;28;20045;-74
2023/11/27 02:00:22;;;;;;;0.50;0.50;;;;;;;-1.06;100.00;99854.38;5045911;28;20055;-74
2023/11/27 02:02:49;;;;;;;0.32;0.32;;;;;;;-0.54;100.00;99978.19;5071415;28;20180;-75
2023/11/27 02:05:15;;;;;;;0.50;0.50;;;;;;;-0.53;100.00;100006.59;5038740;28;20038;-76
2023/11/27 02:07:44;;;;;;;0.30;0.30;;;;;;;-0.58;100.00;99991.81;5044979;28;20037;-75
2023/11/27 02:10:10;;;;;;;0.40;0.40;;;;;;;-0.36;100.00;100009.81;5045006;28;20045;-74
2023/11/27 02:12:36;;;;;;;0.40;0.40;;;;;;;-1.00;100.00;99897.50;5045888;28;20033;-75
2023/11/27 02:15:01;;;;;;;0.50;0.50;;;;;;;-0.56;100.00;99979.81;5039805;28;20433;-75
2023/11/27 02:17:27;;;;;;;0.63;0.63;;;;;;;-1.12;100.00;99891.91;5043972;28;20451;-75
2023/11/27 02:19:53;;;;;;;0.40;0.40;;;;;;;-0.36;100.00;99996.03;5042729;28;20838;-76
2023/11/27 02:22:23;;;;;;;0.40;0.40;;;;;;;-0.32;100.00;100001.38;5036674;28;20038;-78
2023/11/27 02:24:49;;;;;;;4.32;4.13;;;;;;;-0.67;100.00;99966.56;5043157;28;20071;-76
2023/11/27 02:27:14;;;;;;;0.35;0.35;;;;;;;-0.98;100.00;99901.03;5048761;28;20126;-76
2023/11/27 02:29:40;;;;;;;0.30;0.30;;;;;;;-0.82;100.00;99946.25;5040484;28;20535;-77
2023/11/27 02:32:07;;;;;;;0.50;0.50;;;;;;;-2.08;100.00;99780.94;5046116;28;20037;-76
2023/11/27 02:34:33;;;;;;;0.30;0.30;;;;;;;-1.19;100.00;99938.81;5045718;28;20029;-75
2023/11/27 02:36:59;;;;;;;0.40;0.40;;;;;;;-1.44;100.00;99894.09;5040997;28;20510;-76
2023/11/27 02:39:24;;;;;;;6.07;5.82;;;;;;;-1.08;100.00;99925.53;5045377;28;20552;-77
2023/11/27 02:41:50;;;;;;;0.68;0.68;;;;;;;-0.48;100.00;100023.13;5042159;28;20044;-74
2023/11/27 02:44:15;;;;;;;0.30;0.30;;;;;;;-1.28;100.00;99893.88;5039038;28;20388;-76
2023/11/27 02:46:41;;;;;;;11.07;5.88;;;;;;;-0.89;100.00;99985.44;5045105;28;20553;-75
2023/11/27 02:49:07;;;;;;;0.68;0.57;;;;;;;-1.21;100.00;99907.84;5044155;28;20048;-76
2023/11/27 02:51:42;;;;;;;0.50;0.50;;;;;;;-1.10;100.00;99991.53;5035814;28;20049;-75
2023/11/27 02:54:07;;;;;;;0.52;0.52;;;;;;;-1.30;100.00;99926.38;5034652;28;20083;-76
2023/11/27 02:56:33;;;;;;;0.40;0.40;;;;;;;-1.08;100.00;99915.25;5043016;28;20112;-77
2023/11/27 02:58:59;;;;;;;2.15;2.05;;;;;;;-1.12;100.00;100008.63;5038331;28;20096;-75
2023/11/27 03:01:26;;;;;;;0.30;0.30;;;;;;;-1.24;100.00;99942.88;5034812;28;20148;-75
2023/11/27 03:03:52;;;;;;;0.30;0.30;;;;;;;-1.37;100.00;99938.94;5040842;28;20048;-76
2023/11/27 03:06:18;;;;;;;0.30;0.30;;;;;;;-1.06;100.00;100016.56;5066408;28;20866;-76
2023/11/27 03:08:44;;;;;;;0.40;0.40;;;;;;;-0.72;100.00;100035.94;5043306;28;20041;-76
2023/11/27 03:11:12;;;;;;;0.50;0.50;;;;;;;-1.30;100.00;99925.50;5042782;28;20537;-77
2023/11/27 03:13:39;;;;;;;1.67;1.58;;;;;;;-0.59;100.00;100034.69;5041013;28;20206;-76
2023/11/27 03:16:05;;;;;;;2.15;0.93;;;;;;;-1.63;100.00;99949.06;5041403;28;20037;-76
2023/11/27 03:18:31;;;;;;;0.70;0.70;;;;;;;-0.87;100.00;100051.69;5042930;28;20392;-73
2023/11/27 03:20:57;;;;;;;0.60;0.60;;;;;;;-0.73;100.00;100044.47;5037313;28;20045;-74
2023/11/27 03:23:24;;;;;;;0.40;0.40;;;;;;;-1.02;100.00;100016.72;5041124;28;20503;-75
2023/11/27 03:25:50;;;;;;;0.52;0.52;;;;;;;-0.83;100.00;100039.78;5039829;28;20094;-74
2023/11/27 03:28:16;;;;;;;0.30;0.30;;;;;;;-0.66;100.00;100058.47;5033973;28;20041;-74
2023/11/27 03:30:42;;;;;;;0.40;0.40;;;;;;;-0.78;100.00;100046.00;5041374;28;20048;-75
2023/11/27 03:33:07;;;;;;;0.38;0.38;;;;;;;-0.99;100.00;100042.56;5035964;28;20033;-75
2023/11/27 03:35:33;;;;;;;0.45;0.45;;;;;;;-1.07;100.00;100050.00;5039442;28;20091;-76
2023/11/27 03:37:58;;;;;;;0.30;0.30;;;;;;;-0.77;100.00;100065.78;5038967;28;20083;-74
2023/11/27 03:40:24;;;;;;;0.38;0.38;;;;;;;-1.40;100.00;99941.41;5055807;28;20033;-75
2023/11/27 03:42:50;;;;;;;0.40;0.40;;;;;;;-1.60;100.00;99956.03;5038285;28;20050;-74
2023/11/27 03:45:15;;;;;;;0.30;0.30;;;;;;;-1.42;100.00;99971.34;5073526;28;20047;-74
2023/11/27 03:47:41;;;;;;;0.50;0.50;;;;;;;-1.25;100.00;100041.50;5054591;28;20538;-74
2023/11/27 03:50:07;;;;;;;0.40;0.40;;;;;;;-0.76;100.00;100083.00;5036162;28;20071;-77
2023/11/27 03:52:33;;;;;;;0.40;0.40;;;;;;;-0.77;100.00;100078.69;5034524;28;20029;-76
2023/11/27 03:54:59;;;;;;;0.30;0.30;;;;;;;-0.87;100.00;100082.59;5068926;28;20041;-76
2023/11/27 03:57:24;;;;;;;0.40;0.40;;;;;;;-0.99;100.00;100096.63;5035839;28;20041;-75
2023/11/27 03:59:50;;;;;;;0.95;0.95;;;;;;;-0.88;100.00;100067.94;5036381;28;20046;-74
2023/11/27 04:02:17;;;;;;;0.50;0.50;;;;;;;-1.93;100.00;99897.25;5040375;28;20198;-76
2023/11/27 04:04:43;;;;;;;0.40;0.40;;;;;;;-1.06;100.00;100070.63;5046873;28;20068;-76
2023/11/27 04:07:08;;;;;;;0.30;0.30;;;;;;;-1.44;100.00;99990.97;5042479;28;20076;-76
2023/11/27 04:09:34;;;;;;;2.55;1.00;;;;;;;-1.02;100.00;100056.19;5033785;28;20063;-75
2023/11/27 04:12:00;;;;;;;5.38;5.00;;;;;;;-1.43;100.00;100006.47;5041784;28;20583;-76
2023/11/27 04:14:26;;;;;;;0.50;0.50;;;;;;;-1.65;100.00;100006.41;5041451;28;20044;-75
2023/11/27 04:16:52;;;;;;;0.30;0.30;;;;;;;-1.08;100.00;100064.56;5040179;28;20494;-76
2023/11/27 04:19:17;;;;;;;0.30;0.30;;;;;;;-0.68;100.00;100125.41;5040118;28;20487;-75
2023/11/27 04:21:43;;;;;;;0.50;0.50;;;;;;;-1.37;100.00;100021.28;5031149;28;20041;-74
2023/11/27 04:24:08;;;;;;;0.30;0.30;;;;;;;-0.79;100.00;100123.22;5043313;28;20111;-76
2023/11/27 04:26:34;;;;;;;0.40;0.40;;;;;;;-1.25;100.00;100056.97;5037165;28;20452;-75
2023/11/27 04:29:01;;;;;;;0.30;0.30;;;;;;;-1.32;100.00;100048.09;5042354;28;20034;-75
2023/11/27 04:31:28;;;;;;;0.40;0.40;;;;;;;-0.87;100.00;100134.09;5041917;28;20045;-75
2023/11/27 04:33:54;;;;;;;0.40;0.40;;;;;;;-0.86;100.00;100130.69;5071035;28;20512;-76
2023/11/27 04:36:19;;;;;;;0.40;0.40;;;;;;;-1.02;100.00;100111.97;5037749;28;20037;-75
2023/11/27 04:38:45;;;;;;;0.40;0.40;;;;;;;-0.95;100.00;100119.13;5037159;28;20033;-74
2023/11/27 04:41:10;;;;;;;0.40;0.40;;;;;;;-0.95;100.00;100142.31;5045613;28;20021;-75
2023/11/27 04:43:36;;;;;;;0.40;0.40;;;;;;;-0.91;100.00;100121.03;5043535;28;20104;-75
2023/11/27 04:46:04;;;;;;;0.45;0.45;;;;;;;-2.23;100.00;99956.81;5040109;28;20041;-75
2023/11/27 04:48:33;;;;;;;0.40;0.40;;;;;;;-1.71;100.00;100059.34;5042151;28;20495;-75
2023/11/27 04:51:00;;;;;;;0.30;0.30;;;;;;;-1.50;100.00;100066.19;5032325;28;20037;-75
2023/11/27 04:53:25;;;;;;;0.50;0.50;;;;;;;-0.99;100.00;100124.97;5033533;28;20436;-74
2023/11/27 04:55:51;;;;;;;0.30;0.30;;;;;;;-0.93;100.00;100138.97;5043022;28;20116;-75
2023/11/27 04:58:18;;;;;;;1.10;1.10;;;;;;;-0.91;100.00;100146.78;5035761;28;20310;-77
2023/11/27 05:00:43;;;;;;;0.50;0.50;;;;;;;-0.88;100.00;100152.91;5055870;28;20099;-76
2023/11/27 05:03:09;;;;;;;0.40;0.40;;;;;;;-0.85;100.00;100162.47;5037656;28;20100;-74
2023/11/27 05:05:36;;;;;;;0.30;0.30;;;;;;;-1.43;100.00;100129.97;5045602;28;20064;-76
2023/11/27 05:08:02;;;;;;;4.40;4.22;;;;;;;-1.04;100.00;100157.38;5048906;28;20067;-76
2023/11/27 05:10:28;;;;;;;0.75;0.75;;;;;;;-0.89;100.00;100181.16;5047276;28;20029;-75
2023/11/27 05:12:53;;;;;;;0.40;0.40;;;;;;;-1.53;100.00;100084.97;5035947;28;20388;-77
2023/11/27 05:15:19;;;;;;;0.40;0.40;;;;;;;-1.57;100.00;100048.75;5058105;28;20051;-76
2023/11/27 05:17:46;;;;;;;0.40;0.40;;;;;;;-0.98;100.00;100185.97;5045189;28;20426;-75
2023/11/27 05:20:12;;;;;;;0.35;0.35;;;;;;;-1.25;100.00;100116.16;5044973;28;20049;-79
2023/11/27 05:22:37;;;;;;;0.30;0.30;;;;;;;-1.61;100.00;100078.63;5043924;28;20037;-76
2023/11/27 05:25:03;;;;;;;0.38;0.38;;;;;;;-1.83;100.00;100056.22;5043515;28;20044;-76
2023/11/27 05:27:29;;;;;;;6.80;6.50;;;;;;;-1.47;100.00;100073.19;5049116;28;20080;-76
2023/11/27 05:29:56;;;;;;;0.60;0.60;;;;;;;-1.97;100.00;99973.38;5041004;28;20077;-77
2023/11/27 05:32:22;;;;;;;0.82;0.82;;;;;;;-0.89;100.00;100178.59;5046487;28;20496;-75
2023/11/27 05:34:47;;;;;;;0.40;0.40;;;;;;;-1.34;100.00;100075.47;5041495;28;20053;-77
2023/11/27 05:37:13;;;;;;;0.50;0.50;;;;;;;-1.05;100.00;100130.75;5039279;28;20040;-76
2023/11/27 05:39:41;;;;;;;0.35;0.35;;;;;;;-1.74;100.00;100079.78;5047040;28;20498;-76
2023/11/27 05:42:11;;;;;;;0.40;0.40;;;;;;;-1.12;100.00;100159.63;5044238;28;20037;-76
2023/11/27 05:44:38;;;;;;;0.40;0.40;;;;;;;-1.32;100.00;100166.47;5054739;28;20044;-77
2023/11/27 05:47:04;;;;;;;0.40;0.40;;;;;;;-0.98;100.00;100201.41;5041984;28;20509;-76
2023/11/27 05:49:33;;;;;;;0.30;0.30;;;;;;;-1.51;100.00;100088.47;5039930;28;20108;-75
2023/11/27 05:52:00;;;;;;;0.47;0.47;;;;;;;-1.02;100.00;100189.22;5043923;28;20050;-76
2023/11/27 05:54:26;;;;;;;0.30;0.30;;;;;;;-1.76;100.00;100135.41;5042266;28;20041;-75
2023/11/27 05:56:52;;;;;;;0.30;0.30;;;;;;;-1.82;100.00;100095.69;5043958;28;20037;-74
2023/11/27 05:59:18;;;;;;;0.45;0.45;;;;;;;-1.62;100.00;100091.41;5043441;28;20028;-75
2023/11/27 06:01:44;;;;;;;0.50;0.50;;;;;;;-1.19;100.00;100220.25;5044709;28;20138;-76
2023/11/27 06:04:10;;;;;;;17.63;9.70;;;;;;;-1.10;100.00;100230.06;5043136;28;20487;-76
2023/11/27 06:06:36;;;;;;;0.40;0.40;;;;;;;-1.84;100.00;100120.47;5035115;28;20459;-75
2023/11/27 06:09:01;;;;;;;0.30;0.30;;;;;;;-2.10;100.00;100057.59;5046521;28;20067;-74
2023/11/27 06:11:27;;;;;;;0.30;0.30;;;;;;;-1.50;100.00;100226.63;5037862;28;20073;-75
2023/11/27 06:13:53;;;;;;;0.40;0.40;;;;;;;-1.35;100.00;100241.84;5043522;28;20139;-77
2023/11/27 06:16:18;;;;;;;0.40;0.40;;;;;;;-3.10;100.00;99906.66;5041346;28;20722;-78
2023/11/27 06:18:44;;;;;;;3.38;3.22;;;;;;;-1.01;100.00;100239.88;5042887;28;20087;-77
2023/11/27 06:21:11;;;;;;;0.85;0.85;;;;;;;-1.80;100.00;100074.38;5044768;28;20684;-76
2023/11/27 06:23:36;;;;;;;0.30;0.30;;;;;;;-1.10;100.00;100259.28;5044451;28;20055;-76
2023/11/27 06:26:02;;;;;;;0.40;0.40;;;;;;;-0.85;100.00;100279.25;5042542;28;21659;-77
2023/11/27 06:28:28;;;;;;;0.32;0.32;;;;;;;-0.96;100.00;100231.56;5043433;28;20035;-76
2023/11/27 06:30:54;;;;;;;0.20;0.20;;;;;;;-0.74;100.00;100260.81;5025588;28;20046;-76
2023/11/27 06:33:20;;;;;;;2.10;2.00;;;;;;;-0.69;100.00;100261.88;5029271;28;20049;-77
2023/11/27 06:35:46;;;;;;;0.40;0.40;;;;;;;-1.14;100.00;100153.53;5047187;28;20049;-76
2023/11/27 06:38:12;;;;;;;0.50;0.50;;;;;;;-0.78;100.00;100253.75;5042673;28;20124;-76
2023/11/27 06:40:38;;;;;;;0.50;0.50;;;;;;;-0.72;100.00;100254.03;5042285;28;20545;-77
2023/11/27 06:43:05;;;;;;;0.57;0.57;;;;;;;-0.64;100.00;100216.56;5043760;28;20041;-75
2023/11/27 06:45:30;;;;;;;0.30;0.30;;;;;;;-0.62;100.00;100245.88;5035826;28;20511;-77
2023/11/27 06:47:57;;;;;;;0.52;0.52;;;;;;;-1.21;100.00;100112.91;5042527;28;20138;-76
2023/11/27 06:50:22;;;;;;;0.20;0.20;;;;;;;-0.55;100.00;100262.47;5035352;28;20045;-75
2023/11/27 06:52:48;;;;;;;0.30;0.30;;;;;;;-0.73;100.00;100198.16;5041482;28;20393;-75
2023/11/27 06:55:13;;;;;;;0.30;0.30;;;;;;;-0.51;100.00;100275.53;5040310;28;20106;-75
2023/11/27 06:57:39;;;;;;;0.80;0.80;;;;;;;-1.02;100.00;100151.47;5044653;28;20041;-75
2023/11/27 07:00:10;;;;;;;0.50;0.50;;;;;;;-0.26;100.00;100255.94;5037728;28;20114;-77
2023/11/27 07:02:35;;;;;;;0.30;0.30;;;;;;;-0.94;100.00;100149.19;5035127;28;20038;-77
2023/11/27 07:05:05;;;;;;;0.30;0.30;;;;;;;-0.33;100.00;100252.25;5035904;28;20032;-77
2023/11/27 07:07:30;;;;;;;0.32;0.32;;;;;;;-0.93;100.00;100133.81;5043853;28;20438;-78
2023/11/27 07:09:56;;;;;;;0.20;0.20;;;;;;;-0.50;100.00;100212.00;5038906;28;20045;-76
2023/11/27 07:12:22;;;;;;;0.32;0.32;;;;;;;-0.35;100.00;100256.44;5038323;28;20099;-76
2023/11/27 07:14:50;;;;;;;0.60;0.60;;;;;;;-0.39;100.00;100207.28;5041116;28;20114;-74
2023/11/27 07:17:16;;;;;;;0.40;0.40;;;;;;;-0.37;100.00;100234.88;5043251;28;20075;-76
2023/11/27 07:19:42;;;;;;;0.30;0.30;;;;;;;-0.04;100.00;100274.03;5041825;28;20025;-77
2023/11/27 07:22:08;;;;;;;0.40;0.40;;;;;;;-0.28;100.00;100257.56;5034982;28;20045;-75
2023/11/27 07:24:34;;;;;;;1.17;1.17;;;;;;;-0.27;100.00;100224.13;5039707;28;20049;-76
2023/11/27 07:27:02;;;;;;;1.92;1.88;;;;;;;-0.43;100.00;100186.53;5039872;28;20190;-76
2023/11/27 07:29:27;;;;;;;0.30;0.30;;;;;;;0.19;100.00;100261.19;5041458;28;20046;-75
2023/11/27 07:31:53;;;;;;;1.20;0.80;;;;;;;0.42;100.00;100280.13;5044861;28;20033;-76
2023/11/27 07:34:18;;;;;;;1.85;1.75;;;;;;;0.49;100.00;100274.41;5038437;28;20729;-76
2023/11/27 07:36:48;;;;;;;0.60;0.60;;;;;;;0.64;100.00;100274.09;5068641;28;20057;-75
2023/11/27 07:39:13;;;;;;;0.70;0.70;;;;;;;0.15;100.00;100234.38;5039272;28;20056;-75
2023/11/27 07:41:40;;;;;;;2.13;2.03;;;;;;;0.06;100.00;100182.44;5038519;28;20049;-76
2023/11/27 07:44:07;;;;;;;0.40;0.40;;;;;;;0.65;100.00;100274.97;5040882;28;20037;-75
2023/11/27 07:46:33;;;;;;;0.40;0.40;;;;;;;0.41;100.00;100244.81;5044813;28;20052;-77
2023/11/27 07:48:59;;;;;;;0.40;0.40;;;;;;;0.14;100.00;100170.72;5043669;28;20049;-76
2023/11/27 07:51:24;;;;;;;0.57;0.57;;;;;;;0.11;100.00;100161.97;5041413;28;20036;-75
2023/11/27 07:53:50;;;;;;;2.90;2.80;;;;;;;0.56;100.00;100245.41;5050575;28;20467;-76
2023/11/27 07:56:29;;;;;;;0.30;0.30;;;;;;;0.34;100.00;100189.50;5038746;28;20021;-75
2023/11/27 07:58:56;;;;;;;0.60;0.60;;;;;;;0.64;100.00;100271.50;5054469;28;20033;-74
2023/11/27 08:01:22;;;;;;;0.30;0.30;;;;;;;0.05;100.00;100154.88;5038708;28;20451;-76
2023/11/27 08:03:48;;;;;;;0.40;0.40;;;;;;;0.27;100.00;100174.63;5037683;28;20053;-76
2023/11/27 08:06:19;;;;;;;3.30;1.02;;;;;;;0.67;100.00;100263.88;5043100;28;20049;-76
2023/11/27 08:08:44;;;;;;;0.47;0.47;;;;;;;-0.88;100.00;100006.13;5054068;28;20045;-75
2023/11/27 08:11:10;;;;;;;0.40;0.40;;;;;;;0.29;100.00;100154.91;5036305;28;20040;-75
2023/11/27 08:13:36;;;;;;;0.30;0.30;;;;;;;1.05;100.00;100279.88;5037979;28;20714;-77
2023/11/27 08:16:02;;;;;;;1.27;1.20;;;;;;;1.19;100.00;100267.44;5044102;28;20387;-79
2023/11/27 08:18:28;;;;;;;7.20;6.53;;;;;;;0.91;100.00;100208.75;5043011;28;20049;-76
2023/11/27 08:20:53;;;;;;;0.40;0.40;;;;;;;1.33;100.00;100273.09;5036079;28;20563;-76
2023/11/27 08:23:19;;;;;;;5.10;4.68;;;;;;;0.72;100.00;100212.38;5040453;28;20040;-76
2023/11/27 08:25:45;;;;;;;0.30;0.30;;;;;;;0.60;100.00;100167.22;5037441;28;20512;-75
2023/11/27 08:28:11;;;;;;;1.02;1.02;;;;;;;0.64;100.00;100199.22;5036345;28;20060;-75
2023/11/27 08:30:37;;;;;;;0.52;0.52;;;;;;;0.89;100.00;100176.81;5035294;28;20427;-75
2023/11/27 08:33:02;;;;;;;4.32;4.13;;;;;;;0.91;100.00;100194.13;5041029;28;20491;-77
2023/11/27 08:35:33;;;;;;;0.30;0.30;;;;;;;1.09;100.00;100196.50;5041889;28;20075;-77
2023/11/27 08:37:59;;;;;;;0.68;0.60;;;;;;;1.15;100.00;100178.63;5039975;28;20472;-76
2023/11/27 08:40:24;;;;;;;0.60;0.60;;;;;;;1.16;100.00;100197.59;5043405;28;20044;-75
2023/11/27 08:42:50;;;;;;;0.65;0.65;;;;;;;1.61;100.00;100280.09;5036078;28;20056;-76
2023/11/27 08:45:19;;;;;;;0.40;0.40;;;;;;;1.09;100.00;100190.44;5037627;28;20049;-76
2023/11/27 08:47:50;;;;;;;0.30;0.30;;;;;;;0.77;100.00;100154.03;5039260;28;20049;-77
2023/11/27 08:50:19;;;;;;;5.18;4.70;;;;;;;1.62;100.00;100297.41;5044460;28;20036;-75
2023/11/27 08:52:45;;;;;;;0.50;0.50;;;;;;;1.34;100.00;100225.78;5073383;28;20464;-79
2023/11/27 08:55:17;;;;;;;1.95;1.85;;;;;;;1.72;100.00;100288.25;5039524;28;20044;-73
2023/11/27 08:57:44;;;;;;;0.40;0.40;;;;;;;1.57;100.00;100283.41;5036033;28;20041;-74
2023/11/27 09:00:14;;;;;;;13.52;12.32;;;;;;;1.80;100.00;100276.41;5075587;28;20442;-74
2023/11/27 09:02:39;;;;;;;1.15;1.13;;;;;;;1.15;100.00;100173.47;5038084;28;20068;-73
2023/11/27 09:05:06;;;;;;;0.77;0.43;;;;;;;1.80;100.00;100254.03;5040678;28;20373;-75
2023/11/27 09:07:32;;;;;;;6.75;6.32;;;;;;;1.36;100.00;100216.34;5041991;28;20048;-75
2023/11/27 09:09:57;;;;;;;0.30;0.30;;;;;;;2.01;100.00;100284.00;5041532;28;20073;-74
2023/11/27 09:12:23;;;;;;;0.30;0.30;;;;;;;1.53;100.00;100217.81;5038586;28;20075;-72
2023/11/27 09:14:48;;;;;;;0.40;0.40;;;;;;;1.86;100.00;100277.50;5039046;28;20048;-82
2023/11/27 09:17:14;;;;;;;0.63;0.63;;;;;;;1.23;100.00;100171.13;5038961;28;20118;-73
2023/11/27 09:19:39;;;;;;;0.40;0.40;;;;;;;1.58;100.00;100274.84;5047035;28;20120;-74
2023/11/27 09:22:05;;;;;;;0.30;0.30;;;;;;;1.93;100.00;100272.53;5032029;28;20050;-75
2023/11/27 09:24:30;;;;;;;3.60;3.30;;;;;;;1.69;100.00;100260.56;5034276;28;20045;-80
2023/11/27 09:26:56;;;;;;;0.30;0.30;;;;;;;2.17;100.00;100278.50;5038686;28;20041;-73
2023/11/27 09:29:22;;;;;;;2.15;1.88;;;;;;;1.86;100.00;100285.28;5039318;28;20509;-74
2023/11/27 09:31:49;;;;;;;0.60;0.60;;;;;;;2.07;100.00;100266.09;5037981;28;20040;-73
2023/11/27 09:34:15;;;;;;;4.05;3.90;;;;;;;2.38;100.00;100275.69;5032672;28;20094;-75
2023/11/27 09:36:41;;;;;;;0.40;0.40;;;;;;;2.04;100.00;100207.38;5038434;28;20092;-74
2023/11/27 09:39:09;;;;;;;0.40;0.40;;;;;;;1.80;100.00;100170.38;5032287;28;20037;-74
2023/11/27 09:41:35;;;;;;;5.35;2.25;;;;;;;1.78;100.00;100167.75;5042314;28;20111;-76
2023/11/27 09:44:02;;;;;;;0.40;0.40;;;;;;;2.04;100.00;100246.19;5039886;28;20041;-74
2023/11/27 09:46:31;;;;;;;0.60;0.60;;;;;;;2.00;100.00;100173.59;5041146;28;20174;-74
2023/11/27 09:49:01;;;;;;;0.47;0.47;;;;;;;2.20;100.00;100275.13;5032682;28;20377;-75
2023/11/27 09:51:29;;;;;;;1.05;1.05;;;;;;;2.21;100.00;100271.72;5040848;28;20780;-74
2023/11/27 09:53:56;;;;;;;0.50;0.50;;;;;;;2.47;100.00;100275.09;5039773;28;20045;-80
2023/11/27 09:56:27;;;;;;;0.45;0.45;;;;;;;2.08;100.00;100253.22;5049015;28;20041;-87
2023/11/27 09:58:58;;;;;;;0.30;0.30;;;;;;;2.36;100.00;100276.47;5056817;28;20677;-75
2023/11/27 10:01:27;;;;;;;0.40;0.40;;;;;;;2.35;100.00;100222.97;5058044;28;20045;-76
2023/11/27 10:04:00;;;;;;;2.40;2.30;;;;;;;1.66;100.00;100162.16;5041850;28;20072;-77
2023/11/27 10:06:42;;;;;;;0.40;0.40;;;;;;;2.71;100.00;100268.03;5054914;28;20056;-74
2023/11/27 10:09:13;;;;;;;1.42;1.40;;;;;;;2.73;100.00;100237.88;5043777;28;20044;-74
2023/11/27 10:11:39;;;;;;;0.40;0.40;;;;;;;2.26;100.00;100166.59;5057068;28;20051;-77
2023/11/27 10:14:10;;;;;;;0.47;0.47;;;;;;;2.54;100.00;100181.22;5023327;28;20094;-77
2023/11/27 10:16:36;;;;;;;1.35;1.25;;;;;;;2.84;100.00;100203.66;5060033;28;20033;-77
2023/11/27 10:19:06;;;;;;;0.40;0.40;;;;;;;2.78;100.00;100217.28;5047253;28;20065;-77
2023/11/27 10:21:33;;;;;;;0.28;0.28;;;;;;;2.79;100.00;100220.78;5027584;28;20098;-77
2023/11/27 10:24:08;;;;;;;0.50;0.50;;;;;;;2.89;100.00;100246.09;5027063;28;20057;-75
2023/11/27 10:26:36;;;;;;;0.40;0.40;;;;;;;2.15;100.00;100114.50;5049996;28;20123;-76
2023/11/27 10:29:03;;;;;;;3.90;3.70;;;;;;;2.95;100.00;100164.22;5040574;28;20028;-76
2023/11/27 10:31:30;;;;;;;0.30;0.30;;;;;;;3.24;100.00;100226.34;5037962;28;20028;-74
2023/11/27 10:33:56;;;;;;;0.50;0.50;;;;;;;2.62;100.00;100099.44;5041375;28;20041;-73
2023/11/27 10:36:25;;;;;;;0.30;0.30;;;;;;;3.21;100.00;100148.47;5028311;28;20038;-73
2023/11/27 10:39:09;;;;;;;0.40;0.40;;;;;;;3.79;100.00;100203.47;5021431;28;20033;-73
2023/11/27 10:41:34;;;;;;;0.40;0.40;;;;;;;3.70;100.00;100172.13;5035925;28;20152;-73
2023/11/27 10:44:02;;;;;;;0.40;0.40;;;;;;;3.81;100.00;100217.38;5039602;28;20108;-73
2023/11/27 10:46:31;;;;;;;0.38;0.38;;;;;;;3.96;100.00;100209.09;5040415;28;20582;-73
2023/11/27 10:49:01;;;;;;;2.55;2.45;;;;;;;4.27;100.00;100199.41;5042577;28;20053;-72
2023/11/27 10:51:31;;;;;;;0.32;0.32;;;;;;;4.24;100.00;100189.81;5049230;28;20102;-74
2023/11/27 10:54:01;;;;;;;0.45;0.45;;;;;;;4.25;100.00;100195.88;5043798;28;20103;-73
2023/11/27 10:56:28;;;;;;;0.35;0.35;;;;;;;3.79;100.00;100193.09;5045104;28;20037;-74
2023/11/27 10:59:05;;;;;;;0.40;0.40;;;;;;;3.97;100.00;100222.09;5039995;28;20125;-73
2023/11/27 11:01:39;;;;;;;0.57;0.50;;;;;;;3.73;100.00;100212.00;5043675;28;20159;-73
2023/11/27 11:04:16;;;;;;;0.40;0.40;;;;;;;3.94;100.00;100206.47;5038505;28;20053;-73
2023/11/27 11:06:48;;;;;;;0.30;0.30;;;;;;;3.46;100.00;100188.84;5038245;28;20120;-74
2023/11/27 11:09:15;;;;;;;0.40;0.40;;;;;;;3.95;100.00;100207.31;5035557;28;20045;-73
2023/11/27 11:11:47;;;;;;;0.47;0.47;;;;;;;3.73;100.00;100212.00;5032254;28;20053;-73
2023/11/27 11:14:15;;;;;;;0.50;0.50;;;;;;;3.84;100.00;100199.31;5044856;28;20090;-74
2023/11/27 11:16:53;;;;;;;0.43;0.43;;;;;;;3.50;100.00;100123.25;5044226;28;20043;-74
2023/11/27 11:19:42;;;;;;;0.73;0.73;;;;;;;4.26;100.00;100237.50;5011881;28;20100;-74